createdAt,value
2019-05-03T00:00:02.487Z,100781.91
2019-05-03T00:02:48.130Z,100782.36
2019-05-03T00:05:44.448Z,100778.91
2019-05-03T00:08:12.661Z,100776.34
2019-05-03T00:10:42.446Z,100779.80
2019-05-03T00:13:12.312Z,100779.70
2019-05-03T00:16:02.584Z,100779.63
2019-05-03T00:18:30.335Z,100781.34
2019-05-03T00:20:58.180Z,100777.03
2019-05-03T00:23:25.918Z,100781.83
2019-05-03T00:25:53.824Z,100779.27
2019-05-03T00:28:21.826Z,100781.05
2019-05-03T00:30:51.674Z,100778.91
2019-05-03T00:33:19.282Z,100782.31
2019-05-03T00:36:04.958Z,100778.20
2019-05-03T00:38:32.726Z,100775.09
2019-05-03T00:41:01.847Z,100770.31
2019-05-03T00:43:31.666Z,100771.68
2019-05-03T00:45:59.412Z,100772.98
2019-05-03T00:48:27.253Z,100769.96
2019-05-03T00:50:54.847Z,100774.77
2019-05-03T00:53:22.657Z,100776.91
2019-05-03T00:55:52.485Z,100778.20
2019-05-03T00:58:22.235Z,100777.27
2019-05-03T01:00:49.833Z,100766.53
2019-05-03T01:03:17.691Z,100765.87
2019-05-03T01:05:45.560Z,100772.91
2019-05-03T01:08:13.134Z,100772.03
2019-05-03T01:10:42.144Z,100773.77
2019-05-03T01:13:10.057Z,100772.91
2019-05-03T01:15:47.996Z,100777.64
2019-05-03T01:18:19.036Z,100773.31
2019-05-03T01:20:46.716Z,100775.93
2019-05-03T01:23:14.479Z,100774.62
2019-05-03T01:25:42.903Z,100776.80
2019-05-03T01:28:12.254Z,100777.70
2019-05-03T01:30:40.109Z,100782.55
2019-05-03T01:33:07.717Z,100781.22
2019-05-03T01:35:35.509Z,100777.70
2019-05-03T01:38:03.320Z,100777.31
2019-05-03T01:40:32.604Z,100778.58
2019-05-03T01:43:02.233Z,100782.36
2019-05-03T01:45:31.817Z,100778.55
2019-05-03T01:48:12.561Z,100777.59
2019-05-03T01:50:57.886Z,100781.55
2019-05-03T01:53:26.647Z,100786.40
2019-05-03T01:55:54.369Z,100777.19
2019-05-03T01:58:22.465Z,100781.52
2019-05-03T02:00:53.019Z,100777.13
2019-05-03T02:03:39.068Z,100776.83
2019-05-03T02:06:06.883Z,100781.19
2019-05-03T02:08:34.710Z,100770.31
2019-05-03T02:11:02.352Z,100772.91
2019-05-03T02:13:32.139Z,100779.00
2019-05-03T02:15:59.860Z,100782.98
2019-05-03T02:18:27.731Z,100783.80
2019-05-03T02:20:55.497Z,100788.50
2019-05-03T02:23:23.460Z,100786.81
2019-05-03T02:25:56.822Z,100792.02
2019-05-03T02:28:22.076Z,100793.30
2019-05-03T02:30:49.961Z,100796.33
2019-05-03T02:33:17.728Z,100795.43
2019-05-03T02:35:45.397Z,100795.00
2019-05-03T02:38:14.223Z,100801.98
2019-05-03T02:40:42.945Z,100795.92
2019-05-03T02:43:27.223Z,100795.88
2019-05-03T02:46:06.185Z,100773.00
2019-05-03T02:48:47.438Z,100800.26
2019-05-03T02:51:15.754Z,100804.20
2019-05-03T02:53:45.736Z,100800.28
2019-05-03T02:56:21.583Z,100804.19
2019-05-03T02:58:42.947Z,100803.30
2019-05-03T03:01:10.473Z,100807.30
2019-05-03T03:03:38.239Z,100809.06
2019-05-03T03:06:06.907Z,100807.34
2019-05-03T03:08:36.866Z,100812.17
2019-05-03T03:11:06.232Z,100810.00
2019-05-03T03:13:36.776Z,100814.34
2019-05-03T03:16:06.795Z,100810.86
2019-05-03T03:18:36.604Z,100813.11
2019-05-03T03:21:05.897Z,100813.11
2019-05-03T03:23:45.924Z,100821.87
2019-05-03T03:26:15.462Z,100818.78
2019-05-03T03:28:42.646Z,100819.70
2019-05-03T03:32:09.134Z,100812.75
2019-05-03T03:34:39.308Z,100820.09
2019-05-03T03:37:10.186Z,100818.76
2019-05-03T03:39:36.660Z,100825.28
2019-05-03T03:42:05.313Z,100824.89
2019-05-03T03:44:36.012Z,100829.66
2019-05-03T03:47:05.230Z,100832.67
2019-05-03T03:49:35.442Z,100833.56
2019-05-03T03:52:02.321Z,100829.25
2019-05-03T03:54:35.246Z,100841.50
2019-05-03T03:57:04.808Z,100842.50
2019-05-03T03:59:32.133Z,100843.74
2019-05-03T04:01:59.795Z,100847.28
2019-05-03T04:04:27.654Z,100845.66
2019-05-03T04:07:00.680Z,100845.27
2019-05-03T04:09:25.659Z,100848.33
2019-05-03T04:11:56.417Z,100848.38
2019-05-03T04:14:31.575Z,100853.56
2019-05-03T04:17:27.763Z,100855.08
2019-05-03T04:19:56.073Z,100852.83
2019-05-03T04:22:25.369Z,100859.89
2019-05-03T04:24:55.198Z,100867.69
2019-05-03T04:27:26.980Z,100864.48
2019-05-03T04:29:52.476Z,100878.35
2019-05-03T04:32:19.970Z,100882.15
2019-05-03T04:34:47.759Z,100888.23
2019-05-03T04:37:16.279Z,100890.50
2019-05-03T04:39:45.630Z,100898.17
2019-05-03T04:42:16.390Z,100904.03
2019-05-03T04:44:45.669Z,100902.48
2019-05-03T04:47:15.397Z,100909.06
2019-05-03T04:49:42.219Z,100913.48
2019-05-03T04:52:09.836Z,100916.57
2019-05-03T04:54:51.263Z,100915.73
2019-05-03T04:57:34.911Z,100911.41
2019-05-03T04:59:48.278Z,100929.75
2019-05-03T05:02:16.167Z,100932.41
2019-05-03T05:04:46.259Z,100938.08
2019-05-03T05:07:35.123Z,100932.44
2019-05-03T05:10:05.066Z,100916.30
2019-05-03T05:12:32.266Z,100917.64
2019-05-03T05:14:59.863Z,100922.05
2019-05-03T05:17:40.050Z,100921.20
2019-05-03T05:20:35.091Z,100921.19
2019-05-03T05:23:04.539Z,100924.17
2019-05-03T05:25:37.182Z,100936.75
2019-05-03T05:28:15.205Z,100943.60
2019-05-03T05:30:45.909Z,100950.53
2019-05-03T05:33:22.577Z,100958.12
2019-05-03T05:35:51.315Z,100954.52
2019-05-03T05:38:20.422Z,100952.72
2019-05-03T05:40:52.320Z,100945.14
2019-05-03T05:43:20.462Z,100938.56
2019-05-03T05:45:48.629Z,100940.31
2019-05-03T05:48:21.975Z,100940.28
2019-05-03T05:50:49.442Z,100954.28
2019-05-03T05:53:16.902Z,100944.27
2019-05-03T05:56:02.366Z,100950.30
2019-05-03T05:58:52.262Z,100941.59
2019-05-03T06:01:26.236Z,100942.44
2019-05-03T06:03:55.100Z,100940.50
2019-05-03T06:06:30.765Z,100943.48
2019-05-03T06:09:05.713Z,100951.88
2019-05-03T06:11:39.078Z,100949.36
2019-05-03T06:14:11.541Z,100945.54
2019-05-03T06:16:45.656Z,100949.90
2019-05-03T06:19:17.180Z,100948.98
2019-05-03T06:22:02.550Z,100950.67
2019-05-03T06:24:34.963Z,100955.41
2019-05-03T06:27:12.457Z,100955.05
2019-05-03T06:29:40.501Z,100948.55
2019-05-03T06:32:22.065Z,100948.92
2019-05-03T06:34:49.906Z,100951.52
2019-05-03T06:37:19.354Z,100951.95
2019-05-03T06:39:46.824Z,100954.55
2019-05-03T06:42:17.477Z,100953.65
2019-05-03T06:44:45.522Z,100955.41
2019-05-03T06:47:14.860Z,100957.58
2019-05-03T06:49:44.967Z,100955.91
2019-05-03T06:52:12.243Z,100962.05
2019-05-03T06:54:39.721Z,100972.58
2019-05-03T06:57:09.874Z,100966.00
2019-05-03T06:59:45.141Z,100968.50
2019-05-03T07:02:30.925Z,100967.14
2019-05-03T07:04:59.340Z,100966.30
2019-05-03T07:07:54.727Z,100978.37
2019-05-03T07:10:44.570Z,100990.24
2019-05-03T07:13:12.137Z,100994.27
2019-05-03T07:15:39.593Z,100983.02
2019-05-03T07:18:07.133Z,100973.41
2019-05-03T07:20:57.070Z,100975.92
2019-05-03T07:23:24.945Z,100975.75
2019-05-03T07:25:52.417Z,100975.27
2019-05-03T07:28:20.296Z,100973.88
2019-05-03T07:30:47.900Z,100977.89
2019-05-03T07:33:35.021Z,100975.19
2019-05-03T07:36:02.702Z,100982.08
2019-05-03T07:38:30.178Z,101012.44
2019-05-03T07:40:57.696Z,100999.08
2019-05-03T07:43:25.439Z,100992.55
2019-05-03T07:45:55.087Z,100986.48
2019-05-03T07:48:22.300Z,101001.74
2019-05-03T07:50:50.176Z,100999.09
2019-05-03T07:53:18.016Z,100992.50
2019-05-03T07:56:15.426Z,100988.08
2019-05-03T07:58:59.483Z,100979.77
2019-05-03T08:01:22.732Z,100979.24
2019-05-03T08:03:50.861Z,100980.45
2019-05-03T08:06:18.397Z,100984.80
2019-05-03T08:08:45.990Z,100976.02
2019-05-03T08:11:14.516Z,100977.76
2019-05-03T08:13:42.170Z,100973.88
2019-05-03T08:16:09.677Z,100995.41
2019-05-03T08:18:37.155Z,100999.78
2019-05-03T08:21:05.585Z,101008.95
2019-05-03T08:23:35.267Z,101006.79
2019-05-03T08:26:02.838Z,101007.71
2019-05-03T08:28:30.340Z,101004.19
2019-05-03T08:31:10.217Z,101002.84
2019-05-03T08:33:45.821Z,101006.77
2019-05-03T08:36:15.477Z,101004.59
2019-05-03T08:38:42.834Z,100999.70
2019-05-03T08:41:14.480Z,100997.06
2019-05-03T08:43:48.636Z,100992.30
2019-05-03T08:46:16.141Z,100990.55
2019-05-03T08:48:45.486Z,100988.38
2019-05-03T08:51:14.834Z,100988.73
2019-05-03T08:53:42.506Z,100981.72
2019-05-03T08:56:10.164Z,100970.77
2019-05-03T08:58:37.935Z,100983.72
2019-05-03T09:01:05.789Z,100983.58
2019-05-03T09:03:36.287Z,100986.09
2019-05-03T09:06:04.516Z,100985.30
